sensor_id;sensor_type;location;lat;lon;timestamp;pressure;altitude;pressure_sealevel;temperature;humidity
48964;BME280;34776;48.180;16.420;2023-02-18T00:00:08;100164.94;;;14.02;60.04
48964;BME280;34776;48.180;16.420;2023-02-18T00:02:34;100164.94;;;14.02;59.73
48964;BME280;34776;48.180;16.420;2023-02-18T00:04:59;100155.22;;;14.01;59.74
48964;BME280;34776;48.180;16.420;2023-02-18T00:07:25;100150.44;;;14.07;59.57
48964;BME280;34776;48.180;16.420;2023-02-18T00:09:50;100159.03;;;14.12;59.63
48964;BME280;34776;48.180;16.420;2023-02-18T00:12:16;100172.97;;;14.17;59.32
48964;BME280;34776;48.180;16.420;2023-02-18T00:14:41;100176.41;;;14.19;59.38
48964;BME280;34776;48.180;16.420;2023-02-18T00:17:06;100171.28;;;14.16;59.09
48964;BME280;34776;48.180;16.420;2023-02-18T00:19:32;100174.72;;;14.18;59.09
48964;BME280;34776;48.180;16.420;2023-02-18T00:21:57;100168.03;;;14.25;59.05
48964;BME280;34776;48.180;16.420;2023-02-18T00:24:22;100158.09;;;14.27;58.51
48964;BME280;34776;48.180;16.420;2023-02-18T00:26:51;100156.56;;;14.23;58.64
48964;BME280;34776;48.180;16.420;2023-02-18T00:29:18;100184.06;;;14.25;58.72
48964;BME280;34776;48.180;16.420;2023-02-18T00:31:44;100173.28;;;14.27;58.95
48964;BME280;34776;48.180;16.420;2023-02-18T00:34:11;100186.75;;;14.25;58.59
48964;BME280;34776;48.180;16.420;2023-02-18T00:36:36;100177.78;;;14.26;58.99
48964;BME280;34776;48.180;16.420;2023-02-18T00:39:05;100194.59;;;14.28;58.76
48964;BME280;34776;48.180;16.420;2023-02-18T00:41:31;100174.91;;;14.29;58.81
48964;BME280;34776;48.180;16.420;2023-02-18T00:43:57;100182.94;;;14.29;58.62
48964;BME280;34776;48.180;16.420;2023-02-18T00:46:24;100187.22;;;14.32;58.63
48964;BME280;34776;48.180;16.420;2023-02-18T00:48:49;100184.47;;;14.33;58.63
48964;BME280;34776;48.180;16.420;2023-02-18T00:51:15;100195.00;;;14.36;58.66
48964;BME280;34776;48.180;16.420;2023-02-18T00:53:41;100196.88;;;14.34;58.66
48964;BME280;34776;48.180;16.420;2023-02-18T00:56:06;100202.25;;;14.34;58.47
48964;BME280;34776;48.180;16.420;2023-02-18T00:58:33;100203.38;;;14.30;58.66
48964;BME280;34776;48.180;16.420;2023-02-18T01:00:58;100202.41;;;14.31;58.69
48964;BME280;34776;48.180;16.420;2023-02-18T01:03:24;100194.47;;;14.30;58.85
48964;BME280;34776;48.180;16.420;2023-02-18T01:05:50;100198.13;;;14.29;58.72
48964;BME280;34776;48.180;16.420;2023-02-18T01:08:17;100193.63;;;14.29;59.04
48964;BME280;34776;48.180;16.420;2023-02-18T01:10:45;100191.72;;;14.31;58.85
48964;BME280;34776;48.180;16.420;2023-02-18T01:13:12;100192.69;;;14.30;59.14
48964;BME280;34776;48.180;16.420;2023-02-18T01:15:39;100181.09;;;14.30;58.77
48964;BME280;34776;48.180;16.420;2023-02-18T01:18:08;100193.63;;;14.29;58.83
48964;BME280;34776;48.180;16.420;2023-02-18T01:20:35;100191.72;;;14.31;58.78
48964;BME280;34776;48.180;16.420;2023-02-18T01:23:01;100174.81;;;14.31;58.84
48964;BME280;34776;48.180;16.420;2023-02-18T01:25:27;100184.84;;;14.27;59.06
48964;BME280;34776;48.180;16.420;2023-02-18T01:27:52;100183.78;;;14.30;59.14
48964;BME280;34776;48.180;16.420;2023-02-18T01:30:18;100166.88;;;14.29;59.27
48964;BME280;34776;48.180;16.420;2023-02-18T01:32:44;100162.41;;;14.30;59.11
48964;BME280;34776;48.180;16.420;2023-02-18T01:35:12;100156.41;;;14.26;59.06
48964;BME280;34776;48.180;16.420;2023-02-18T01:37:37;100156.41;;;14.26;59.15
48964;BME280;34776;48.180;16.420;2023-02-18T01:40:04;100151.06;;;14.26;59.38
48964;BME280;34776;48.180;16.420;2023-02-18T01:42:30;100150.16;;;14.26;59.17
48964;BME280;34776;48.180;16.420;2023-02-18T01:50:42;100149.31;;;14.25;59.50
48964;BME280;34776;48.180;16.420;2023-02-18T01:53:08;100155.63;;;14.24;59.34
48964;BME280;34776;48.180;16.420;2023-02-18T01:55:35;100154.88;;;14.22;59.39
48964;BME280;34776;48.180;16.420;2023-02-18T01:58:02;100153.59;;;14.28;59.20
48964;BME280;34776;48.180;16.420;2023-02-18T02:00:28;100157.16;;;14.28;59.41
48964;BME280;34776;48.180;16.420;2023-02-18T02:02:53;100162.50;;;14.28;59.53
48964;BME280;34776;48.180;16.420;2023-02-18T02:05:20;100153.53;;;14.29;59.52
48964;BME280;34776;48.180;16.420;2023-02-18T02:07:50;100157.25;;;14.27;59.52
48964;BME280;34776;48.180;16.420;2023-02-18T02:10:17;100149.31;;;14.25;59.60
48964;BME280;34776;48.180;16.420;2023-02-18T02:15:51;100154.50;;;14.28;59.34
48964;BME280;34776;48.180;16.420;2023-02-18T02:27:09;100146.34;;;14.30;59.42
48964;BME280;34776;48.180;16.420;2023-02-18T02:32:27;100147.63;;;14.24;59.35
48964;BME280;34776;48.180;16.420;2023-02-18T02:35:24;100147.63;;;14.24;59.53
48964;BME280;34776;48.180;16.420;2023-02-18T02:43:20;100146.38;;;14.15;59.72
48964;BME280;34776;48.180;16.420;2023-02-18T02:51:17;100157.50;;;14.08;59.89
48964;BME280;34776;48.180;16.420;2023-02-18T02:53:44;100159.41;;;14.06;59.91
48964;BME280;34776;48.180;16.420;2023-02-18T02:56:23;100154.25;;;14.02;59.96
48964;BME280;34776;48.180;16.420;2023-02-18T02:59:01;100155.22;;;14.01;60.17
48964;BME280;34776;48.180;16.420;2023-02-18T03:10:53;100154.44;;;13.99;60.44
48964;BME280;34776;48.180;16.420;2023-02-18T03:21:56;100136.09;;;13.93;60.58
48964;BME280;34776;48.180;16.420;2023-02-18T03:24:28;100139.63;;;13.94;60.66
48964;BME280;34776;48.180;16.420;2023-02-18T03:26:58;100136.03;;;13.95;60.75
48964;BME280;34776;48.180;16.420;2023-02-18T03:29:26;100133.63;;;13.90;60.94
48964;BME280;34776;48.180;16.420;2023-02-18T03:31:56;100127.59;;;13.87;60.88
48964;BME280;34776;48.180;16.420;2023-02-18T03:34:31;100134.00;;;13.84;61.22
48964;BME280;34776;48.180;16.420;2023-02-18T03:36:59;100143.16;;;13.80;61.10
48964;BME280;34776;48.180;16.420;2023-02-18T03:39:28;100140.84;;;13.74;61.25
48964;BME280;34776;48.180;16.420;2023-02-18T03:41:54;100154.28;;;13.72;61.40
48964;BME280;34776;48.180;16.420;2023-02-18T03:44:19;100139.47;;;13.67;61.55
48964;BME280;34776;48.180;16.420;2023-02-18T03:46:45;100145.06;;;13.62;61.43
48964;BME280;34776;48.180;16.420;2023-02-18T03:49:12;100141.63;;;13.60;61.72
48964;BME280;34776;48.180;16.420;2023-02-18T03:51:39;100141.91;;;13.55;61.86
48964;BME280;34776;48.180;16.420;2023-02-18T03:54:04;100144.78;;;13.52;61.85
48964;BME280;34776;48.180;16.420;2023-02-18T03:56:29;100145.72;;;13.51;61.82
48964;BME280;34776;48.180;16.420;2023-02-18T03:58:55;100148.56;;;13.48;61.94
48964;BME280;34776;48.180;16.420;2023-02-18T04:01:20;100154.25;;;13.42;62.08
48964;BME280;34776;48.180;16.420;2023-02-18T04:03:46;100152.72;;;13.38;62.35
48964;BME280;34776;48.180;16.420;2023-02-18T04:06:11;100152.88;;;13.35;62.12
48964;BME280;34776;48.180;16.420;2023-02-18T04:08:36;100149.63;;;13.30;62.46
48964;BME280;34776;48.180;16.420;2023-02-18T04:11:02;100151.66;;;13.25;62.93
48964;BME280;34776;48.180;16.420;2023-02-18T04:13:29;100150.78;;;13.24;63.15
48964;BME280;34776;48.180;16.420;2023-02-18T04:15:54;100142.63;;;13.27;62.93
48964;BME280;34776;48.180;16.420;2023-02-18T04:18:20;100151.31;;;13.31;62.82
48964;BME280;34776;48.180;16.420;2023-02-18T04:20:46;100153.06;;;13.32;62.76
48964;BME280;34776;48.180;16.420;2023-02-18T04:23:11;100156.31;;;13.37;62.78
48964;BME280;34776;48.180;16.420;2023-02-18T04:25:37;100158.72;;;13.42;62.60
48964;BME280;34776;48.180;16.420;2023-02-18T04:28:03;100161.16;;;13.46;62.38
48964;BME280;34776;48.180;16.420;2023-02-18T04:30:28;100159.81;;;13.53;62.15
48964;BME280;34776;48.180;16.420;2023-02-18T04:32:54;100164.03;;;13.57;61.85
48964;BME280;34776;48.180;16.420;2023-02-18T04:35:19;100165.59;;;13.62;62.01
48964;BME280;34776;48.180;16.420;2023-02-18T04:37:45;100168.06;;;13.65;61.91
48964;BME280;34776;48.180;16.420;2023-02-18T04:40:10;100156.38;;;13.67;61.54
48964;BME280;34776;48.180;16.420;2023-02-18T04:42:36;100172.09;;;13.72;61.60
48964;BME280;34776;48.180;16.420;2023-02-18T04:45:01;100158.75;;;13.72;61.21
48964;BME280;34776;48.180;16.420;2023-02-18T04:47:27;100170.03;;;13.77;61.17
48964;BME280;34776;48.180;16.420;2023-02-18T04:49:52;100180.69;;;13.77;61.06
48964;BME280;34776;48.180;16.420;2023-02-18T04:52:18;100186.94;;;13.77;61.18
48964;BME280;34776;48.180;16.420;2023-02-18T04:54:44;100162.78;;;13.79;61.20
48964;BME280;34776;48.180;16.420;2023-02-18T04:57:09;100173.47;;;13.79;60.81
48964;BME280;34776;48.180;16.420;2023-02-18T04:59:35;100172.69;;;13.77;61.01
48964;BME280;34776;48.180;16.420;2023-02-18T05:02:01;100169.84;;;13.80;60.79
48964;BME280;34776;48.180;16.420;2023-02-18T05:04:26;100177.88;;;13.80;60.61
48964;BME280;34776;48.180;16.420;2023-02-18T05:06:51;100184.91;;;13.81;60.73
48964;BME280;34776;48.180;16.420;2023-02-18T05:09:17;100183.97;;;13.82;60.64
48964;BME280;34776;48.180;16.420;2023-02-18T05:11:43;100188.56;;;13.80;60.71
48964;BME280;34776;48.180;16.420;2023-02-18T05:14:08;100191.50;;;13.75;60.96
48964;BME280;34776;48.180;16.420;2023-02-18T05:16:34;100195.88;;;13.76;60.67
48964;BME280;34776;48.180;16.420;2023-02-18T05:18:59;100198.25;;;13.81;60.73
48964;BME280;34776;48.180;16.420;2023-02-18T05:21:26;100191.88;;;13.84;60.51
48964;BME280;34776;48.180;16.420;2023-02-18T05:23:52;100191.03;;;13.83;60.40
48964;BME280;34776;48.180;16.420;2023-02-18T05:26:17;100208.94;;;13.81;60.60
48964;BME280;34776;48.180;16.420;2023-02-18T05:28:42;100202.56;;;13.84;60.38
48964;BME280;34776;48.180;16.420;2023-02-18T05:31:08;100207.66;;;13.88;60.53
48964;BME280;34776;48.180;16.420;2023-02-18T05:33:33;100207.75;;;13.87;60.52
48964;BME280;34776;48.180;16.420;2023-02-18T05:35:58;100201.72;;;13.83;60.32
48964;BME280;34776;48.180;16.420;2023-02-18T05:38:24;100203.53;;;13.83;60.54
48964;BME280;34776;48.180;16.420;2023-02-18T05:40:49;100206.88;;;13.86;60.55
48964;BME280;34776;48.180;16.420;2023-02-18T05:43:15;100211.25;;;13.87;60.18
48964;BME280;34776;48.180;16.420;2023-02-18T05:45:40;100212.22;;;13.86;60.57
48964;BME280;34776;48.180;16.420;2023-02-18T05:48:05;100214.13;;;13.84;60.43
48964;BME280;34776;48.180;16.420;2023-02-18T05:50:31;100208.09;;;13.80;60.39
48964;BME280;34776;48.180;16.420;2023-02-18T05:52:57;100216.97;;;13.81;60.61
48964;BME280;34776;48.180;16.420;2023-02-18T05:55:22;100207.06;;;13.83;60.66
48964;BME280;34776;48.180;16.420;2023-02-18T05:57:48;100208.03;;;13.82;60.80
48964;BME280;34776;48.180;16.420;2023-02-18T06:00:14;100213.34;;;13.82;60.78
48964;BME280;34776;48.180;16.420;2023-02-18T06:02:39;100212.31;;;13.85;60.54
48964;BME280;34776;48.180;16.420;2023-02-18T06:05:05;100215.84;;;13.85;60.35
48964;BME280;34776;48.180;16.420;2023-02-18T06:07:31;100224.81;;;13.84;60.62
48964;BME280;34776;48.180;16.420;2023-02-18T06:09:56;100227.28;;;13.87;60.73
48964;BME280;34776;48.180;16.420;2023-02-18T06:12:22;100227.28;;;13.87;60.62
48964;BME280;34776;48.180;16.420;2023-02-18T06:14:47;100223.78;;;13.87;60.70
48964;BME280;34776;48.180;16.420;2023-02-18T06:17:13;100225.59;;;13.86;60.37
48964;BME280;34776;48.180;16.420;2023-02-18T06:19:38;100228.84;;;13.91;60.41
48964;BME280;34776;48.180;16.420;2023-02-18T06:22:06;100224.47;;;13.90;60.43
48964;BME280;34776;48.180;16.420;2023-02-18T06:24:31;100231.34;;;13.94;60.48
48964;BME280;34776;48.180;16.420;2023-02-18T06:26:57;100222.44;;;13.94;60.44
48964;BME280;34776;48.180;16.420;2023-02-18T06:29:22;100224.25;;;13.93;60.63
48964;BME280;34776;48.180;16.420;2023-02-18T06:31:48;100229.44;;;13.96;60.72
48964;BME280;34776;48.180;16.420;2023-02-18T06:34:14;100222.28;;;13.97;60.43
48964;BME280;34776;48.180;16.420;2023-02-18T06:36:39;100224.97;;;13.97;60.82
48964;BME280;34776;48.180;16.420;2023-02-18T06:39:05;100230.94;;;14.00;60.70
48964;BME280;34776;48.180;16.420;2023-02-18T06:41:30;100219.34;;;14.01;60.62
48964;BME280;34776;48.180;16.420;2023-02-18T06:43:56;100222.00;;;14.01;60.72
48964;BME280;34776;48.180;16.420;2023-02-18T06:46:21;100225.25;;;14.07;60.78
48964;BME280;34776;48.180;16.420;2023-02-18T06:48:47;100225.09;;;14.10;60.55
48964;BME280;34776;48.180;16.420;2023-02-18T06:51:12;100220.59;;;14.10;60.70
48964;BME280;34776;48.180;16.420;2023-02-18T06:53:38;100221.19;;;14.15;60.36
48964;BME280;34776;48.180;16.420;2023-02-18T06:56:04;100222.63;;;14.21;60.35
48964;BME280;34776;48.180;16.420;2023-02-18T06:58:29;100217.28;;;14.21;60.54
48964;BME280;34776;48.180;16.420;2023-02-18T07:00:55;100222.47;;;14.24;60.59
48964;BME280;34776;48.180;16.420;2023-02-18T07:03:20;100217.50;;;14.32;60.21
48964;BME280;34776;48.180;16.420;2023-02-18T07:05:46;100211.03;;;14.36;60.14
48964;BME280;34776;48.180;16.420;2023-02-18T07:08:11;100210.81;;;14.39;60.05
48964;BME280;34776;48.180;16.420;2023-02-18T07:10:37;100198.03;;;14.45;59.81
48964;BME280;34776;48.180;16.420;2023-02-18T07:13:03;100219.16;;;14.49;59.99
48964;BME280;34776;48.180;16.420;2023-02-18T07:15:28;100222.09;;;14.45;59.79
48964;BME280;34776;48.180;16.420;2023-02-18T07:17:54;100216.94;;;14.41;60.06
48964;BME280;34776;48.180;16.420;2023-02-18T07:20:20;100216.38;;;14.36;60.23
48964;BME280;34776;48.180;16.420;2023-02-18T07:22:46;100221.53;;;14.39;60.59
48964;BME280;34776;48.180;16.420;2023-02-18T07:25:12;100226.09;;;14.37;60.66
48964;BME280;34776;48.180;16.420;2023-02-18T07:27:37;100217.41;;;14.34;60.44
48964;BME280;34776;48.180;16.420;2023-02-18T07:30:04;100217.22;;;14.37;60.51
48964;BME280;34776;48.180;16.420;2023-02-18T07:32:29;100221.53;;;14.39;60.57
48964;BME280;34776;48.180;16.420;2023-02-18T07:34:55;100214.06;;;14.45;60.36
48964;BME280;34776;48.180;16.420;2023-02-18T07:37:21;100210.78;;;14.55;60.51
48964;BME280;34776;48.180;16.420;2023-02-18T07:39:46;100213.56;;;14.68;59.75
48964;BME280;34776;48.180;16.420;2023-02-18T07:42:12;100203.41;;;14.59;59.87
48964;BME280;34776;48.180;16.420;2023-02-18T07:44:39;100214.13;;;14.59;60.08
48964;BME280;34776;48.180;16.420;2023-02-18T07:47:06;100216.63;;;14.62;59.93
48964;BME280;34776;48.180;16.420;2023-02-18T07:49:32;100215.22;;;14.55;60.24
48964;BME280;34776;48.180;16.420;2023-02-18T07:51:57;100213.03;;;14.47;60.48
48964;BME280;34776;48.180;16.420;2023-02-18T07:54:23;100224.09;;;14.41;60.56
48964;BME280;34776;48.180;16.420;2023-02-18T07:56:48;100217.78;;;14.42;60.84
48964;BME280;34776;48.180;16.420;2023-02-18T07:59:14;100216.66;;;14.46;60.82
48964;BME280;34776;48.180;16.420;2023-02-18T08:01:40;100214.75;;;14.48;60.67
48964;BME280;34776;48.180;16.420;2023-02-18T08:04:06;100218.97;;;14.52;60.60
48964;BME280;34776;48.180;16.420;2023-02-18T08:06:40;100216.78;;;14.59;60.52
48964;BME280;34776;48.180;16.420;2023-02-18T08:09:06;100216.88;;;14.72;60.32
48964;BME280;34776;48.180;16.420;2023-02-18T08:11:33;100213.94;;;14.76;60.26
48964;BME280;34776;48.180;16.420;2023-02-18T08:13:58;100215.66;;;14.77;60.16
48964;BME280;34776;48.180;16.420;2023-02-18T08:16:26;100210.50;;;14.74;60.19
48964;BME280;34776;48.180;16.420;2023-02-18T08:18:52;100212.50;;;14.85;60.37
48964;BME280;34776;48.180;16.420;2023-02-18T08:21:18;100209.13;;;15.25;59.94
48964;BME280;34776;48.180;16.420;2023-02-18T08:23:44;100204.88;;;15.89;58.28
48964;BME280;34776;48.180;16.420;2023-02-18T08:26:10;100209.38;;;16.41;56.68
48964;BME280;34776;48.180;16.420;2023-02-18T08:28:35;100207.81;;;17.88;55.27
48964;BME280;34776;48.180;16.420;2023-02-18T08:31:01;100199.78;;;19.91;49.45
48964;BME280;34776;48.180;16.420;2023-02-18T08:33:28;100212.44;;;19.02;50.03
48964;BME280;34776;48.180;16.420;2023-02-18T08:35:54;100209.06;;;18.42;51.00
48964;BME280;34776;48.180;16.420;2023-02-18T08:38:21;100208.56;;;18.01;51.58
48964;BME280;34776;48.180;16.420;2023-02-18T08:40:47;100199.75;;;17.51;52.54
48964;BME280;34776;48.180;16.420;2023-02-18T08:43:14;100200.00;;;17.48;53.09
48964;BME280;34776;48.180;16.420;2023-02-18T08:45:40;100207.13;;;17.49;52.88
48964;BME280;34776;48.180;16.420;2023-02-18T08:48:07;100198.19;;;17.97;52.33
48964;BME280;34776;48.180;16.420;2023-02-18T08:50:33;100198.38;;;18.87;51.44
48964;BME280;34776;48.180;16.420;2023-02-18T08:52:59;100185.34;;;19.70;48.72
48964;BME280;34776;48.180;16.420;2023-02-18T08:55:30;100185.72;;;19.65;48.60
48964;BME280;34776;48.180;16.420;2023-02-18T08:57:56;100189.00;;;19.91;48.06
48964;BME280;34776;48.180;16.420;2023-02-18T09:00:22;100195.72;;;19.42;48.07
48964;BME280;34776;48.180;16.420;2023-02-18T09:02:48;100192.25;;;18.85;49.20
48964;BME280;34776;48.180;16.420;2023-02-18T09:05:13;100187.19;;;18.58;49.79
48964;BME280;34776;48.180;16.420;2023-02-18T09:07:39;100186.88;;;18.16;50.77
48964;BME280;34776;48.180;16.420;2023-02-18T09:10:05;100195.59;;;17.95;50.51
48964;BME280;34776;48.180;16.420;2023-02-18T09:12:31;100184.56;;;17.63;51.43
48964;BME280;34776;48.180;16.420;2023-02-18T09:15:17;100181.66;;;17.42;51.07
48964;BME280;34776;48.180;16.420;2023-02-18T09:17:43;100183.13;;;17.83;51.46
48964;BME280;34776;48.180;16.420;2023-02-18T09:20:09;100183.00;;;18.31;50.48
48964;BME280;34776;48.180;16.420;2023-02-18T09:22:34;100178.31;;;18.22;50.20
48964;BME280;34776;48.180;16.420;2023-02-18T09:25:00;100179.16;;;18.11;50.06
48964;BME280;34776;48.180;16.420;2023-02-18T09:27:25;100183.09;;;17.59;50.72
48964;BME280;34776;48.180;16.420;2023-02-18T09:29:50;100176.13;;;17.19;51.69
48964;BME280;34776;48.180;16.420;2023-02-18T09:32:16;100184.53;;;17.15;51.72
48964;BME280;34776;48.180;16.420;2023-02-18T09:34:43;100179.88;;;16.93;52.10
48964;BME280;34776;48.180;16.420;2023-02-18T09:37:10;100198.56;;;16.81;52.57
48964;BME280;34776;48.180;16.420;2023-02-18T09:39:35;100196.84;;;16.68;52.94
48964;BME280;34776;48.180;16.420;2023-02-18T09:42:09;100193.19;;;16.56;53.24
48964;BME280;34776;48.180;16.420;2023-02-18T09:44:48;100191.06;;;16.61;52.90
48964;BME280;34776;48.180;16.420;2023-02-18T09:47:41;100177.75;;;16.47;53.46
48964;BME280;34776;48.180;16.420;2023-02-18T09:50:19;100182.44;;;16.56;53.59
48964;BME280;34776;48.180;16.420;2023-02-18T09:52:46;100174.41;;;16.56;53.21
48964;BME280;34776;48.180;16.420;2023-02-18T09:55:19;100180.28;;;16.22;54.06
48964;BME280;34776;48.180;16.420;2023-02-18T09:57:48;100185.00;;;16.19;54.27
48964;BME280;34776;48.180;16.420;2023-02-18T10:00:22;100181.25;;;15.96;54.65
48964;BME280;34776;48.180;16.420;2023-02-18T10:02:54;100191.06;;;15.95;54.69
48964;BME280;34776;48.180;16.420;2023-02-18T10:05:21;100184.28;;;15.77;55.00
48964;BME280;34776;48.180;16.420;2023-02-18T10:07:49;100170.53;;;15.69;55.45
48964;BME280;34776;48.180;16.420;2023-02-18T10:10:39;100175.69;;;15.72;55.49
48964;BME280;34776;48.180;16.420;2023-02-18T10:13:12;100181.00;;;15.59;55.57
48964;BME280;34776;48.180;16.420;2023-02-18T10:15:41;100182.47;;;15.50;55.81
48964;BME280;34776;48.180;16.420;2023-02-18T10:18:19;100168.50;;;15.45;56.00
48964;BME280;34776;48.180;16.420;2023-02-18T10:20:46;100150.72;;;15.44;56.24
48964;BME280;34776;48.180;16.420;2023-02-18T10:23:13;100166.78;;;15.44;56.41
48964;BME280;34776;48.180;16.420;2023-02-18T10:25:43;100162.38;;;15.43;56.09
48964;BME280;34776;48.180;16.420;2023-02-18T10:28:11;100171.03;;;15.34;56.34
48964;BME280;34776;48.180;16.420;2023-02-18T10:31:00;100160.09;;;15.37;56.48
48964;BME280;34776;48.180;16.420;2023-02-18T10:33:31;100166.56;;;15.47;56.29
48964;BME280;34776;48.180;16.420;2023-02-18T10:47:36;100147.56;;;15.52;55.83
48964;BME280;34776;48.180;16.420;2023-02-18T10:50:24;100157.78;;;15.72;55.38
48964;BME280;34776;48.180;16.420;2023-02-18T10:52:54;100134.13;;;15.79;55.16
48964;BME280;34776;48.180;16.420;2023-02-18T10:55:33;100144.66;;;15.82;54.98
48964;BME280;34776;48.180;16.420;2023-02-18T10:57:59;100143.38;;;15.75;55.26
48964;BME280;34776;48.180;16.420;2023-02-18T11:00:26;100125.56;;;15.74;55.14
48964;BME280;34776;48.180;16.420;2023-02-18T11:03:13;100121.22;;;15.71;55.02
48964;BME280;34776;48.180;16.420;2023-02-18T11:05:39;100115.94;;;15.84;54.75
48964;BME280;34776;48.180;16.420;2023-02-18T11:08:09;100126.41;;;15.87;54.80
48964;BME280;34776;48.180;16.420;2023-02-18T11:10:39;100113.00;;;15.74;54.41
48964;BME280;34776;48.180;16.420;2023-02-18T11:13:07;100111.22;;;15.75;54.92
48964;BME280;34776;48.180;16.420;2023-02-18T11:15:35;100104.25;;;15.98;54.48
48964;BME280;34776;48.180;16.420;2023-02-18T11:20:59;100103.72;;;16.06;53.91
48964;BME280;34776;48.180;16.420;2023-02-18T11:23:25;100105.13;;;15.98;53.78
48964;BME280;34776;48.180;16.420;2023-02-18T11:26:02;100075.31;;;15.90;54.06
48964;BME280;34776;48.180;16.420;2023-02-18T11:28:36;100084.44;;;16.00;53.74
48964;BME280;34776;48.180;16.420;2023-02-18T11:31:04;100081.84;;;16.12;53.92
48964;BME280;34776;48.180;16.420;2023-02-18T11:33:37;100067.91;;;16.07;52.91
48964;BME280;34776;48.180;16.420;2023-02-18T11:36:24;100069.53;;;16.09;52.87
48964;BME280;34776;48.180;16.420;2023-02-18T11:38:57;100075.22;;;16.17;53.07
48964;BME280;34776;48.180;16.420;2023-02-18T11:41:37;100067.03;;;16.19;52.55
48964;BME280;34776;48.180;16.420;2023-02-18T11:44:07;100069.28;;;16.25;52.42
48964;BME280;34776;48.180;16.420;2023-02-18T11:46:55;100059.75;;;16.34;51.84
48964;BME280;34776;48.180;16.420;2023-02-18T11:49:22;100049.19;;;16.43;52.07
48964;BME280;34776;48.180;16.420;2023-02-18T11:51:48;100040.00;;;16.35;51.97
48964;BME280;34776;48.180;16.420;2023-02-18T11:54:28;100040.84;;;16.35;51.37
48964;BME280;34776;48.180;16.420;2023-02-18T11:56:58;100048.56;;;16.53;51.41
48964;BME280;34776;48.180;16.420;2023-02-18T11:59:25;100042.09;;;16.55;51.67
48964;BME280;34776;48.180;16.420;2023-02-18T12:04:39;100020.81;;;16.65;51.05
48964;BME280;34776;48.180;16.420;2023-02-18T12:07:18;100020.38;;;16.84;50.34
48964;BME280;34776;48.180;16.420;2023-02-18T12:09:50;100011.59;;;17.17;49.99
48964;BME280;34776;48.180;16.420;2023-02-18T12:12:25;100016.19;;;17.39;49.41
48964;BME280;34776;48.180;16.420;2023-02-18T12:14:53;99998.66;;;17.58;48.94
48964;BME280;34776;48.180;16.420;2023-02-18T12:26:12;99989.09;;;17.89;47.90
48964;BME280;34776;48.180;16.420;2023-02-18T12:34:34;99961.84;;;18.71;45.87
48964;BME280;34776;48.180;16.420;2023-02-18T12:42:24;99947.66;;;19.64;43.24
48964;BME280;34776;48.180;16.420;2023-02-18T12:45:17;99942.69;;;19.70;42.83
48964;BME280;34776;48.180;16.420;2023-02-18T12:50:24;99929.47;;;19.36;44.46
48964;BME280;34776;48.180;16.420;2023-02-18T12:53:00;99912.72;;;19.32;44.08
48964;BME280;34776;48.180;16.420;2023-02-18T12:58:21;99910.16;;;18.89;43.65
48964;BME280;34776;48.180;16.420;2023-02-18T13:14:15;99871.25;;;18.81;43.51
48964;BME280;34776;48.180;16.420;2023-02-18T13:16:46;99868.59;;;18.70;44.08
48964;BME280;34776;48.180;16.420;2023-02-18T13:19:26;99873.25;;;18.79;43.34
48964;BME280;34776;48.180;16.420;2023-02-18T13:21:57;99859.22;;;19.06;43.22
48964;BME280;34776;48.180;16.420;2023-02-18T13:24:34;99854.44;;;19.31;42.49
48964;BME280;34776;48.180;16.420;2023-02-18T13:32:37;99822.69;;;19.65;40.87
48964;BME280;34776;48.180;16.420;2023-02-18T13:41:05;99799.03;;;19.48;41.83
48964;BME280;34776;48.180;16.420;2023-02-18T13:43:32;99800.91;;;19.17;42.54
48964;BME280;34776;48.180;16.420;2023-02-18T13:48:28;99789.44;;;18.94;42.41
48964;BME280;34776;48.180;16.420;2023-02-18T13:51:01;99779.47;;;18.84;41.54
48964;BME280;34776;48.180;16.420;2023-02-18T13:53:31;99791.25;;;18.72;42.49
48964;BME280;34776;48.180;16.420;2023-02-18T13:56:19;99808.44;;;18.60;40.81
48964;BME280;34776;48.180;16.420;2023-02-18T13:58:55;99790.03;;;18.23;42.02
48964;BME280;34776;48.180;16.420;2023-02-18T14:01:39;99791.47;;;17.95;42.17
48964;BME280;34776;48.180;16.420;2023-02-18T14:07:32;99801.88;;;17.65;42.75
48964;BME280;34776;48.180;16.420;2023-02-18T14:10:24;99771.16;;;17.47;42.29
48964;BME280;34776;48.180;16.420;2023-02-18T14:25:49;99743.53;;;17.56;42.91
48964;BME280;34776;48.180;16.420;2023-02-18T14:31:28;99756.47;;;17.62;42.77
48964;BME280;34776;48.180;16.420;2023-02-18T14:36:51;99744.25;;;17.58;43.20
48964;BME280;34776;48.180;16.420;2023-02-18T14:50:22;99728.06;;;17.37;43.04
48964;BME280;34776;48.180;16.420;2023-02-18T14:52:56;99721.56;;;17.40;42.85
48964;BME280;34776;48.180;16.420;2023-02-18T14:55:26;99733.53;;;17.47;43.37
48964;BME280;34776;48.180;16.420;2023-02-18T14:58:05;99729.97;;;17.58;42.90
48964;BME280;34776;48.180;16.420;2023-02-18T15:00:34;99732.28;;;17.62;43.04
48964;BME280;34776;48.180;16.420;2023-02-18T15:03:03;99721.75;;;17.71;43.32
48964;BME280;34776;48.180;16.420;2023-02-18T15:05:30;99711.22;;;17.79;43.18
48964;BME280;34776;48.180;16.420;2023-02-18T15:08:05;99713.19;;;17.77;42.67
48964;BME280;34776;48.180;16.420;2023-02-18T15:10:43;99722.00;;;17.68;42.96
48964;BME280;34776;48.180;16.420;2023-02-18T15:13:17;99705.31;;;17.53;42.62
48964;BME280;34776;48.180;16.420;2023-02-18T15:15:46;99719.16;;;17.37;43.56
48964;BME280;34776;48.180;16.420;2023-02-18T15:18:22;99727.69;;;17.31;43.20